createdAt,value
2022-11-29T00:01:34.598Z,85.45
2022-11-29T00:04:02.733Z,85.00
2022-11-29T00:06:33.367Z,85.26
2022-11-29T00:09:04.452Z,85.73
2022-11-29T00:11:54.068Z,85.99
2022-11-29T00:14:22.280Z,86.36
2022-11-29T00:16:54.898Z,86.35
2022-11-29T00:19:22.326Z,87.33
2022-11-29T00:21:49.199Z,86.95
2022-11-29T00:24:16.417Z,86.85
2022-11-29T00:26:43.330Z,85.75
2022-11-29T00:29:12.619Z,86.14
2022-11-29T00:31:40.725Z,86.64
2022-11-29T00:34:09.737Z,86.20
2022-11-29T00:36:36.982Z,85.53
2022-11-29T00:39:05.194Z,86.48
2022-11-29T00:41:32.297Z,86.62
2022-11-29T00:43:59.396Z,86.52
2022-11-29T00:46:26.421Z,85.87
2022-11-29T00:48:53.411Z,86.05
2022-11-29T00:51:20.342Z,85.76
2022-11-29T00:53:47.341Z,85.30
2022-11-29T00:56:14.342Z,85.65
2022-11-29T00:58:43.621Z,86.00
2022-11-29T01:01:11.845Z,86.76
2022-11-29T01:03:39.304Z,86.31
2022-11-29T01:06:12.898Z,86.90
2022-11-29T01:08:40.023Z,87.00
2022-11-29T01:11:06.934Z,86.04
2022-11-29T01:13:35.091Z,86.27
2022-11-29T01:16:02.079Z,86.79
2022-11-29T01:18:30.628Z,86.82
2022-11-29T01:20:59.543Z,86.72
2022-11-29T01:23:27.445Z,86.25
2022-11-29T01:26:18.936Z,86.56
2022-11-29T01:28:47.455Z,85.92
2022-11-29T01:31:17.794Z,86.47
2022-11-29T01:33:44.776Z,86.40
2022-11-29T01:36:13.743Z,84.84
2022-11-29T01:38:42.489Z,85.32
2022-11-29T01:41:13.711Z,84.77
2022-11-29T01:44:01.596Z,84.08
2022-11-29T01:46:31.871Z,85.29
2022-11-29T01:49:28.007Z,85.49
2022-11-29T01:52:30.109Z,84.85
2022-11-29T01:55:00.697Z,84.45
2022-11-29T01:57:28.510Z,84.50
2022-11-29T02:00:01.110Z,83.66
2022-11-29T02:02:50.868Z,83.52
2022-11-29T02:05:19.677Z,84.87
2022-11-29T02:07:51.158Z,85.08
2022-11-29T02:10:18.626Z,84.60
2022-11-29T02:13:09.040Z,83.00
2022-11-29T02:15:42.979Z,82.24
2022-11-29T02:18:27.434Z,83.12
2022-11-29T02:21:19.988Z,83.82
2022-11-29T02:24:24.569Z,84.25
2022-11-29T02:27:13.366Z,83.69
2022-11-29T02:29:58.749Z,82.81
2022-11-29T02:32:50.299Z,83.31
2022-11-29T02:35:19.759Z,83.13
2022-11-29T02:38:11.682Z,82.96
2022-11-29T02:40:38.653Z,83.78
2022-11-29T02:43:11.611Z,83.37
2022-11-29T02:45:58.729Z,82.15
2022-11-29T02:48:44.271Z,83.01
2022-11-29T02:51:42.023Z,82.73
2022-11-29T02:54:24.130Z,83.43
2022-11-29T02:57:04.501Z,83.26
2022-11-29T02:59:43.325Z,82.06
2022-11-29T03:02:25.455Z,82.61
2022-11-29T03:05:14.005Z,83.15
2022-11-29T03:08:13.366Z,82.53
2022-11-29T03:11:05.333Z,82.17
2022-11-29T03:13:50.557Z,82.14
2022-11-29T03:16:41.325Z,81.79
2022-11-29T03:19:39.135Z,81.61
2022-11-29T03:22:34.072Z,83.28
2022-11-29T03:25:08.124Z,82.53
2022-11-29T03:27:43.750Z,83.04
2022-11-29T03:30:14.052Z,83.08
2022-11-29T03:32:59.119Z,83.17
2022-11-29T03:35:37.777Z,82.26
2022-11-29T03:38:27.492Z,83.83
2022-11-29T03:41:13.115Z,84.23
2022-11-29T03:44:09.676Z,84.45
2022-11-29T03:46:56.851Z,83.70
2022-11-29T03:49:30.599Z,83.18
2022-11-29T03:52:17.335Z,84.15
2022-11-29T03:55:05.965Z,82.16
2022-11-29T03:58:11.369Z,82.88
2022-11-29T04:01:00.452Z,81.87
2022-11-29T04:04:06.134Z,82.04
2022-11-29T04:07:00.979Z,82.44
2022-11-29T04:09:39.783Z,83.42
2022-11-29T04:12:06.619Z,83.71
2022-11-29T04:15:15.225Z,83.76
2022-11-29T04:18:07.133Z,82.64
2022-11-29T04:20:53.704Z,82.59
2022-11-29T04:23:45.968Z,82.07
2022-11-29T04:26:35.175Z,82.55
2022-11-29T04:29:23.803Z,81.31
2022-11-29T04:32:03.442Z,82.24
2022-11-29T04:34:45.520Z,81.87
2022-11-29T04:37:39.979Z,80.69
2022-11-29T04:40:44.196Z,79.87
2022-11-29T04:43:35.115Z,79.90
2022-11-29T04:46:34.192Z,80.89
2022-11-29T04:49:23.217Z,80.38
2022-11-29T04:52:13.964Z,80.42
2022-11-29T04:54:44.025Z,80.92
2022-11-29T04:57:32.680Z,80.64
2022-11-29T05:00:18.686Z,79.57
2022-11-29T05:02:55.031Z,80.23
2022-11-29T05:05:51.137Z,80.98
2022-11-29T05:08:21.305Z,79.21
2022-11-29T05:11:26.996Z,80.01
2022-11-29T05:14:08.971Z,79.57
2022-11-29T05:17:04.616Z,79.28
2022-11-29T05:19:56.548Z,78.92
2022-11-29T05:22:38.329Z,79.31
2022-11-29T05:25:28.803Z,79.51
2022-11-29T05:28:10.424Z,79.90
2022-11-29T05:31:14.549Z,80.38
2022-11-29T05:34:13.559Z,79.39
2022-11-29T05:36:55.444Z,79.46
2022-11-29T05:39:50.804Z,78.17
2022-11-29T05:42:34.938Z,78.03
2022-11-29T05:45:17.168Z,77.29
2022-11-29T05:47:56.272Z,78.23
2022-11-29T05:50:30.896Z,78.61
2022-11-29T05:53:26.043Z,78.31
2022-11-29T05:56:25.401Z,75.48
2022-11-29T05:59:05.657Z,76.16
2022-11-29T06:01:46.532Z,76.71
2022-11-29T06:04:23.089Z,75.51
2022-11-29T06:06:59.956Z,75.64
2022-11-29T06:09:33.776Z,75.60
2022-11-29T06:12:14.898Z,76.38
2022-11-29T06:15:03.833Z,75.72
2022-11-29T06:18:02.190Z,76.37
2022-11-29T06:20:57.242Z,75.72
2022-11-29T06:23:44.463Z,75.67
2022-11-29T06:26:11.255Z,75.40
2022-11-29T06:29:02.542Z,75.69
2022-11-29T06:31:46.596Z,75.38
2022-11-29T06:34:37.880Z,75.12
2022-11-29T06:37:17.374Z,75.50
2022-11-29T06:39:44.568Z,75.87
2022-11-29T06:42:11.457Z,76.06
2022-11-29T06:44:38.591Z,75.15
2022-11-29T06:47:09.402Z,75.91
2022-11-29T06:49:41.916Z,75.75
2022-11-29T06:52:35.484Z,76.31
2022-11-29T06:55:26.254Z,75.82
2022-11-29T06:58:08.074Z,75.24
2022-11-29T07:00:38.610Z,75.33
2022-11-29T07:03:28.845Z,74.95
2022-11-29T07:05:57.215Z,74.77
2022-11-29T07:08:25.454Z,74.46
2022-11-29T07:10:55.703Z,74.74
2022-11-29T07:13:23.296Z,74.41
2022-11-29T07:16:02.375Z,74.83
2022-11-29T07:18:43.491Z,75.62
2022-11-29T07:21:47.131Z,75.17
2022-11-29T07:24:16.616Z,74.63
2022-11-29T07:27:06.354Z,74.60
2022-11-29T07:30:02.704Z,74.66
2022-11-29T07:33:00.302Z,73.69
2022-11-29T07:36:00.538Z,74.83
2022-11-29T07:38:53.901Z,72.90
2022-11-29T07:41:56.140Z,74.24
2022-11-29T07:44:45.495Z,74.27
2022-11-29T07:47:13.442Z,73.80
2022-11-29T07:49:40.513Z,73.28
2022-11-29T07:52:10.013Z,72.83
2022-11-29T07:54:36.913Z,73.03
2022-11-29T07:57:03.899Z,73.04
2022-11-29T07:59:30.829Z,73.20
2022-11-29T08:01:58.952Z,73.46
2022-11-29T08:04:25.966Z,72.57
2022-11-29T08:06:52.906Z,73.40
2022-11-29T08:09:20.117Z,73.74
2022-11-29T08:11:48.945Z,74.16
2022-11-29T08:14:15.885Z,73.65
2022-11-29T08:16:42.917Z,72.50
2022-11-29T08:19:09.862Z,73.61
2022-11-29T08:21:36.737Z,71.76
2022-11-29T08:24:03.739Z,71.57
2022-11-29T08:26:31.883Z,73.17
2022-11-29T08:28:59.021Z,72.46
2022-11-29T08:31:26.026Z,72.93
2022-11-29T08:33:53.017Z,72.58
2022-11-29T08:36:20.872Z,71.36
2022-11-29T08:38:48.116Z,71.73
2022-11-29T08:41:16.927Z,71.65
2022-11-29T08:43:44.410Z,70.85
2022-11-29T08:46:17.977Z,70.90
2022-11-29T08:48:46.582Z,70.09
2022-11-29T08:51:13.844Z,70.03
2022-11-29T08:53:46.139Z,71.34
2022-11-29T08:57:04.457Z,71.05
2022-11-29T08:59:05.753Z,69.97
2022-11-29T09:01:32.947Z,69.24
2022-11-29T09:03:59.944Z,70.60
2022-11-29T09:06:28.849Z,69.76
2022-11-29T09:08:56.889Z,68.78
2022-11-29T09:11:26.016Z,69.90
2022-11-29T09:13:56.006Z,69.49
2022-11-29T09:16:25.905Z,69.42
2022-11-29T09:18:55.871Z,69.61
2022-11-29T09:21:24.788Z,68.39
2022-11-29T09:23:58.822Z,67.72
2022-11-29T09:26:31.933Z,67.88
2022-11-29T09:29:01.396Z,67.31
2022-11-29T09:31:30.441Z,67.17
2022-11-29T09:33:57.828Z,66.19
2022-11-29T09:36:28.490Z,66.24
2022-11-29T09:38:57.644Z,66.12
2022-11-29T09:41:42.996Z,66.07
2022-11-29T09:44:22.656Z,65.94
2022-11-29T09:47:02.968Z,67.30
2022-11-29T09:49:39.032Z,66.89
2022-11-29T09:52:14.710Z,66.75
2022-11-29T09:54:53.521Z,65.69
2022-11-29T09:57:21.969Z,66.18
2022-11-29T09:59:54.733Z,66.03
2022-11-29T10:02:38.298Z,66.90
2022-11-29T10:05:24.292Z,66.40
2022-11-29T10:07:55.511Z,67.38
2022-11-29T10:10:32.406Z,67.11
2022-11-29T10:13:16.059Z,66.81
2022-11-29T10:15:50.659Z,65.73
2022-11-29T10:18:44.404Z,65.65
2022-11-29T10:21:17.408Z,66.81
2022-11-29T10:23:56.514Z,65.64
2022-11-29T10:26:25.877Z,67.89
2022-11-29T10:28:57.726Z,66.41
2022-11-29T10:31:29.395Z,66.99
2022-11-29T10:34:00.020Z,66.83
2022-11-29T10:36:33.437Z,66.57
2022-11-29T10:39:13.007Z,67.46
2022-11-29T10:41:41.215Z,68.42
2022-11-29T10:44:13.420Z,67.34
2022-11-29T10:46:41.283Z,67.05
2022-11-29T10:49:17.526Z,68.28
2022-11-29T10:51:46.038Z,67.75
2022-11-29T10:54:31.759Z,66.62
2022-11-29T10:57:00.753Z,67.04
2022-11-29T10:59:29.897Z,66.16
2022-11-29T11:01:58.012Z,65.96
2022-11-29T11:04:27.143Z,65.99
2022-11-29T11:07:01.307Z,67.12
2022-11-29T11:09:34.377Z,66.56
2022-11-29T11:12:08.591Z,66.93
2022-11-29T11:14:38.732Z,66.53
2022-11-29T11:17:22.633Z,66.01
2022-11-29T11:20:05.858Z,67.07
2022-11-29T11:22:34.065Z,66.82
2022-11-29T11:25:07.711Z,66.01
2022-11-29T11:27:41.995Z,66.46
2022-11-29T11:30:22.999Z,65.87
2022-11-29T11:33:20.405Z,66.50
2022-11-29T11:36:06.437Z,66.98
2022-11-29T11:38:38.662Z,66.86
2022-11-29T11:41:12.878Z,66.49
2022-11-29T11:43:40.081Z,66.27
2022-11-29T11:46:08.302Z,67.07
2022-11-29T11:48:35.884Z,67.10
2022-11-29T11:51:03.271Z,68.10
2022-11-29T11:53:36.738Z,67.79
2022-11-29T11:56:10.503Z,68.28
2022-11-29T11:58:43.646Z,67.93
2022-11-29T12:01:13.475Z,68.55
2022-11-29T12:04:20.497Z,68.83
2022-11-29T12:06:59.430Z,68.85
2022-11-29T12:09:48.025Z,69.19
2022-11-29T12:12:26.188Z,68.94
2022-11-29T12:15:07.118Z,69.48
2022-11-29T12:17:41.708Z,70.86
2022-11-29T12:20:42.802Z,69.90
2022-11-29T12:23:12.817Z,72.20
2022-11-29T12:25:44.963Z,71.64
2022-11-29T12:28:20.586Z,72.16
2022-11-29T12:30:59.916Z,72.73
2022-11-29T12:33:32.831Z,73.17
2022-11-29T12:36:21.148Z,73.05
2022-11-29T12:39:26.993Z,73.85
2022-11-29T12:42:12.562Z,73.52
2022-11-29T12:44:43.651Z,73.33
2022-11-29T12:47:39.627Z,73.71
2022-11-29T12:50:28.334Z,74.03
2022-11-29T12:52:55.186Z,74.46
2022-11-29T12:55:32.932Z,72.94
2022-11-29T12:58:14.067Z,73.82
2022-11-29T13:01:23.146Z,74.60
2022-11-29T13:04:08.581Z,74.54
2022-11-29T13:06:38.361Z,74.87
2022-11-29T13:09:18.685Z,74.86
2022-11-29T13:12:16.971Z,74.32
2022-11-29T13:14:54.314Z,75.43
2022-11-29T13:17:56.708Z,75.39
2022-11-29T13:20:33.774Z,75.10
2022-11-29T13:23:03.628Z,75.33
2022-11-29T13:25:42.019Z,75.88
2022-11-29T13:28:24.096Z,76.37
2022-11-29T13:30:52.845Z,76.13
2022-11-29T13:33:38.636Z,76.28
2022-11-29T13:36:44.470Z,77.27
2022-11-29T13:39:36.968Z,77.19
2022-11-29T13:42:03.862Z,77.16
2022-11-29T13:44:44.567Z,77.14
2022-11-29T13:47:19.153Z,77.93
2022-11-29T13:49:50.844Z,77.41
2022-11-29T13:52:26.722Z,77.30
2022-11-29T13:55:12.046Z,77.52
2022-11-29T13:58:18.458Z,78.51
2022-11-29T14:00:45.655Z,78.08
2022-11-29T14:03:18.886Z,78.48
2022-11-29T14:05:49.146Z,78.56
2022-11-29T14:08:25.645Z,78.61
2022-11-29T14:10:56.982Z,78.91
2022-11-29T14:13:46.391Z,78.99
2022-11-29T14:16:21.033Z,79.08
2022-11-29T14:19:03.745Z,78.66
2022-11-29T14:21:58.721Z,78.67
2022-11-29T14:24:38.121Z,78.70
2022-11-29T14:27:12.615Z,79.75
2022-11-29T14:29:53.677Z,79.36
2022-11-29T14:32:23.853Z,79.06
2022-11-29T14:34:56.762Z,79.46
2022-11-29T14:37:55.806Z,79.09
2022-11-29T14:40:34.819Z,79.20
2022-11-29T14:43:05.395Z,79.05
2022-11-29T14:45:34.682Z,79.55
2022-11-29T14:48:02.890Z,79.28
2022-11-29T14:50:33.379Z,78.86
2022-11-29T14:53:01.291Z,79.12
2022-11-29T14:55:32.375Z,78.97
2022-11-29T14:58:06.025Z,79.17
2022-11-29T15:00:32.989Z,78.41
2022-11-29T15:03:12.957Z,78.31
2022-11-29T15:05:44.933Z,77.54
2022-11-29T15:08:28.524Z,78.16
2022-11-29T15:11:04.686Z,77.57
2022-11-29T15:13:35.650Z,77.73
2022-11-29T15:16:21.081Z,77.53
2022-11-29T15:19:03.317Z,77.76
2022-11-29T15:21:51.334Z,77.63
2022-11-29T15:24:19.115Z,78.47
2022-11-29T15:26:56.977Z,78.84
2022-11-29T15:29:24.297Z,78.66
2022-11-29T15:31:57.815Z,78.24
2022-11-29T15:34:33.068Z,78.16
2022-11-29T15:37:00.674Z,78.38
2022-11-29T15:39:36.741Z,77.98
2022-11-29T15:42:11.737Z,78.65
2022-11-29T15:44:45.962Z,78.46
2022-11-29T15:47:23.810Z,78.89
2022-11-29T15:49:52.156Z,78.92
2022-11-29T15:52:33.942Z,79.04
2022-11-29T15:55:06.533Z,78.37
2022-11-29T15:57:41.197Z,79.33
2022-11-29T16:00:16.859Z,79.23
2022-11-29T16:02:56.773Z,79.11
2022-11-29T16:05:37.461Z,78.93
2022-11-29T16:08:08.560Z,79.48
2022-11-29T16:10:49.491Z,79.05
2022-11-29T16:13:25.673Z,79.28
2022-11-29T16:16:07.607Z,79.47
2022-11-29T16:18:35.283Z,80.22
2022-11-29T16:21:06.935Z,79.49
2022-11-29T16:23:41.503Z,79.69
2022-11-29T16:26:11.337Z,79.53
2022-11-29T16:28:44.098Z,80.78
2022-11-29T16:31:19.557Z,80.20
2022-11-29T16:33:49.265Z,80.20
2022-11-29T16:36:20.889Z,80.68
2022-11-29T16:38:51.365Z,80.82
2022-11-29T16:41:21.405Z,80.71
2022-11-29T16:43:53.918Z,80.12
2022-11-29T16:46:21.021Z,79.35
2022-11-29T16:48:52.724Z,80.15
2022-11-29T16:51:33.440Z,80.58
2022-11-29T16:54:26.380Z,80.02
2022-11-29T16:56:55.905Z,80.34
2022-11-29T16:59:27.476Z,80.66
2022-11-29T17:01:56.891Z,80.75
2022-11-29T17:04:30.065Z,80.38
2022-11-29T17:06:58.229Z,79.93
2022-11-29T17:09:54.375Z,80.15
2022-11-29T17:12:48.372Z,79.36
2022-11-29T17:18:15.732Z,79.50
2022-11-29T17:20:42.659Z,79.77
2022-11-29T17:23:37.951Z,79.92
2022-11-29T17:26:05.398Z,80.27
2022-11-29T17:34:46.006Z,79.46
2022-11-29T17:37:13.174Z,79.71
2022-11-29T17:39:44.796Z,79.55
2022-11-29T17:45:11.039Z,80.18
2022-11-29T17:47:38.015Z,79.42
2022-11-29T17:50:36.242Z,79.40
2022-11-29T17:53:28.756Z,79.65
2022-11-29T17:56:28.975Z,80.30
2022-11-29T17:58:59.868Z,80.17
2022-11-29T18:01:52.739Z,80.72
2022-11-29T18:04:44.838Z,79.77
2022-11-29T18:07:15.976Z,80.12
2022-11-29T18:10:09.298Z,79.79
2022-11-29T18:12:41.447Z,79.97
2022-11-29T18:15:33.586Z,80.36
2022-11-29T18:18:04.499Z,80.13
2022-11-29T18:21:07.374Z,79.94
2022-11-29T18:23:43.623Z,79.83
2022-11-29T18:26:21.771Z,79.92
2022-11-29T18:28:49.612Z,79.27
2022-11-29T18:31:24.371Z,79.42
2022-11-29T18:34:17.052Z,79.65
2022-11-29T18:37:17.628Z,79.90
2022-11-29T18:40:45.610Z,79.36
2022-11-29T18:49:49.634Z,79.35
2022-11-29T18:52:16.735Z,78.95
2022-11-29T18:57:48.452Z,79.72
2022-11-29T19:13:10.671Z,79.61
2022-11-29T19:18:39.249Z,79.88
2022-11-29T19:21:16.275Z,80.61
2022-11-29T19:24:19.763Z,80.12
2022-11-29T19:26:49.216Z,80.48
2022-11-29T19:29:41.242Z,80.10
2022-11-29T19:35:24.862Z,80.64
2022-11-29T19:38:16.700Z,79.96
2022-11-29T19:44:11.991Z,79.91
2022-11-29T19:46:43.960Z,79.85
2022-11-29T19:49:17.161Z,80.56
2022-11-29T19:51:44.188Z,80.05
2022-11-29T19:54:12.849Z,80.76
2022-11-29T19:56:42.063Z,80.48
2022-11-29T19:59:11.013Z,80.15
2022-11-29T20:05:20.568Z,80.80
2022-11-29T20:08:19.841Z,80.78
2022-11-29T20:10:48.491Z,81.17
2022-11-29T20:13:48.598Z,81.07
2022-11-29T20:16:20.300Z,80.47
2022-11-29T20:18:56.180Z,80.47
2022-11-29T20:21:31.165Z,80.95
2022-11-29T20:24:03.415Z,81.13
2022-11-29T20:26:33.063Z,80.67
2022-11-29T20:29:00.314Z,81.40
2022-11-29T20:31:27.475Z,81.40
2022-11-29T20:33:57.463Z,81.25
2022-11-29T20:36:43.154Z,80.86
2022-11-29T20:39:42.477Z,81.50
2022-11-29T20:42:36.758Z,81.47
2022-11-29T20:45:10.494Z,81.27
2022-11-29T20:48:03.026Z,81.53
2022-11-29T20:50:32.227Z,80.67
2022-11-29T20:53:26.904Z,81.39
2022-11-29T20:55:53.852Z,80.93
2022-11-29T20:58:20.907Z,81.23
2022-11-29T21:00:48.194Z,81.24
2022-11-29T21:03:40.662Z,81.11
2022-11-29T21:06:07.609Z,80.71
2022-11-29T21:08:36.004Z,80.57
2022-11-29T21:11:09.934Z,81.53
2022-11-29T21:13:37.657Z,80.69
2022-11-29T21:16:04.951Z,81.69
2022-11-29T21:18:32.656Z,81.22
2022-11-29T21:21:17.937Z,81.45
2022-11-29T21:24:05.352Z,81.15
2022-11-29T21:26:50.502Z,81.41
2022-11-29T21:29:18.783Z,81.45
2022-11-29T21:31:47.155Z,81.22
2022-11-29T21:34:14.363Z,82.09
2022-11-29T21:36:41.868Z,81.28
2022-11-29T21:39:13.094Z,82.27
2022-11-29T21:41:39.996Z,81.76
2022-11-29T21:44:07.953Z,81.74
2022-11-29T21:46:35.559Z,81.14
2022-11-29T21:49:02.536Z,81.45
2022-11-29T21:51:29.536Z,81.46
2022-11-29T21:53:56.434Z,80.96
2022-11-29T21:56:23.452Z,81.45
2022-11-29T21:58:50.577Z,80.69
2022-11-29T22:01:20.185Z,81.57
2022-11-29T22:03:47.646Z,80.76
2022-11-29T22:06:20.469Z,80.90
2022-11-29T22:08:48.425Z,81.19
2022-11-29T22:11:30.679Z,81.57
2022-11-29T22:14:14.314Z,81.30
2022-11-29T22:16:44.969Z,81.76
2022-11-29T22:19:13.872Z,81.54
2022-11-29T22:21:42.259Z,81.79
2022-11-29T22:24:10.462Z,81.57
2022-11-29T22:26:37.815Z,81.49
2022-11-29T22:29:05.718Z,81.00
2022-11-29T22:31:33.382Z,80.51
2022-11-29T22:34:00.464Z,80.56
2022-11-29T22:36:27.621Z,81.73
2022-11-29T22:38:54.589Z,81.53
2022-11-29T22:41:21.488Z,81.38
2022-11-29T22:43:48.432Z,81.02
2022-11-29T22:46:19.603Z,80.56
2022-11-29T22:48:49.150Z,80.77
2022-11-29T22:51:19.128Z,81.08
2022-11-29T22:53:51.481Z,81.71
2022-11-29T22:56:19.041Z,80.64
2022-11-29T22:58:46.591Z,80.77
2022-11-29T23:01:19.066Z,81.01
2022-11-29T23:03:48.524Z,80.72
2022-11-29T23:06:18.035Z,80.73
2022-11-29T23:08:46.375Z,81.19
2022-11-29T23:11:16.006Z,80.91
2022-11-29T23:13:44.025Z,80.12
2022-11-29T23:16:14.472Z,81.02
2022-11-29T23:18:45.852Z,81.29
2022-11-29T23:21:22.210Z,80.50
2022-11-29T23:23:55.854Z,81.23
2022-11-29T23:26:26.554Z,81.47
2022-11-29T23:28:54.555Z,81.48
2022-11-29T23:31:23.130Z,81.42
2022-11-29T23:33:50.932Z,80.44
2022-11-29T23:36:18.324Z,80.38
2022-11-29T23:38:45.332Z,81.25
2022-11-29T23:41:12.806Z,80.51
2022-11-29T23:43:41.197Z,80.50
2022-11-29T23:46:19.278Z,80.13
2022-11-29T23:48:47.003Z,80.29
2022-11-29T23:51:14.346Z,80.82
2022-11-29T23:53:41.961Z,80.47
2022-11-29T23:56:13.455Z,80.27
2022-11-29T23:58:40.609Z,81.16
